Time;durP1;ratioP1;P1;durP2;ratioP2;P2;SDS_P1;SDS_P2;PMS_P1;PMS_P2;Temp;Humidity;BMP_temperature;BMP_pressure;BME280_temperature;BME280_humidity;BME280_pressure;Samples;Min_cycle;Max_cycle;Signal;HPM_P1;HPM_P2
2022/07/27 00:02:09;;;;;;;2.33;1.00;;;19.80;51.10;;;;;;4812489;29;20039;-77
2022/07/27 00:04:35;;;;;;;2.35;0.93;;;19.80;50.80;;;;;;4810772;29;20405;-76
2022/07/27 00:07:01;;;;;;;1.33;0.60;;;19.80;50.90;;;;;;4813936;29;20050;-76
2022/07/27 00:09:26;;;;;;;0.98;0.70;;;19.80;51.00;;;;;;4813929;29;20022;-75
2022/07/27 00:11:52;;;;;;;0.47;0.38;;;19.70;51.00;;;;;;4796155;29;20169;-76
2022/07/27 00:14:18;;;;;;;4.55;2.03;;;19.60;50.90;;;;;;4813619;29;20069;-76
2022/07/27 00:16:44;;;;;;;3.00;1.02;;;19.60;51.10;;;;;;4812652;29;20550;-76
2022/07/27 00:19:10;;;;;;;2.10;0.70;;;19.50;51.00;;;;;;4813286;29;20703;-76
2022/07/27 00:21:36;;;;;;;1.92;0.95;;;19.50;51.10;;;;;;4814395;29;20280;-76
2022/07/27 00:24:03;;;;;;;1.85;0.70;;;19.40;51.00;;;;;;4815187;29;20066;-76
2022/07/27 00:26:29;;;;;;;1.55;0.70;;;19.40;51.10;;;;;;4815695;29;20432;-76
2022/07/27 00:28:55;;;;;;;1.60;0.80;;;19.30;51.00;;;;;;4813522;29;20026;-76
2022/07/27 00:31:21;;;;;;;1.73;0.80;;;19.30;51.10;;;;;;4814084;29;20038;-76
2022/07/27 00:33:47;;;;;;;1.98;0.50;;;19.30;51.20;;;;;;4812539;29;20568;-75
2022/07/27 00:36:12;;;;;;;1.73;0.70;;;19.30;51.30;;;;;;4814756;29;20439;-76
2022/07/27 00:38:38;;;;;;;2.28;1.15;;;19.30;51.30;;;;;;4816163;29;20113;-75
2022/07/27 00:41:05;;;;;;;2.05;0.60;;;19.20;51.20;;;;;;4806167;29;20071;-76
2022/07/27 00:43:31;;;;;;;2.67;0.63;;;19.20;51.30;;;;;;4822427;29;20034;-76
2022/07/27 00:45:56;;;;;;;2.25;0.50;;;19.20;51.40;;;;;;4807768;29;20840;-76
2022/07/27 00:48:22;;;;;;;1.83;1.02;;;19.20;51.40;;;;;;4820617;29;20042;-76
2022/07/27 00:50:48;;;;;;;1.80;0.52;;;19.10;51.30;;;;;;4817692;29;20489;-76
2022/07/27 00:53:15;;;;;;;2.40;0.70;;;19.10;51.40;;;;;;4815271;29;20594;-75
2022/07/27 00:55:41;;;;;;;1.65;0.70;;;19.10;51.50;;;;;;4818091;29;20254;-75
2022/07/27 00:58:07;;;;;;;3.15;0.70;;;19.10;51.60;;;;;;4815614;29;20103;-76
2022/07/27 01:00:36;;;;;;;1.95;0.70;;;19.00;51.40;;;;;;4816304;29;20489;-75
2022/07/27 01:03:03;;;;;;;2.35;0.57;;;19.00;51.50;;;;;;4814063;29;20042;-76
2022/07/27 01:05:30;;;;;;;1.52;0.60;;;19.00;52.20;;;;;;4800016;29;20040;-76
2022/07/27 01:07:56;;;;;;;1.85;0.68;;;18.90;51.50;;;;;;4814935;29;20027;-76
2022/07/27 01:10:23;;;;;;;4.45;1.20;;;18.90;51.60;;;;;;4818853;29;20042;-76
2022/07/27 01:12:49;;;;;;;1.33;0.75;;;18.90;51.60;;;;;;4814675;29;20035;-75
2022/07/27 01:15:16;;;;;;;1.40;0.90;;;18.80;51.50;;;;;;4819310;29;20045;-76
2022/07/27 01:17:41;;;;;;;1.83;0.63;;;18.80;51.60;;;;;;4815496;29;20424;-76
2022/07/27 01:20:08;;;;;;;2.15;0.65;;;18.80;51.70;;;;;;4817377;29;20043;-76
2022/07/27 01:22:34;;;;;;;1.63;0.70;;;18.80;51.70;;;;;;4815255;29;20034;-76
2022/07/27 01:25:00;;;;;;;2.42;0.70;;;18.80;51.80;;;;;;4817926;29;20085;-76
2022/07/27 01:27:26;;;;;;;1.05;0.70;;;18.70;51.70;;;;;;4815671;29;20457;-76
2022/07/27 01:29:52;;;;;;;3.10;0.70;;;18.70;51.80;;;;;;4813731;29;20040;-76
2022/07/27 01:32:17;;;;;;;1.25;0.75;;;18.70;51.90;;;;;;4815696;29;20042;-76
2022/07/27 01:34:43;;;;;;;1.98;0.82;;;18.60;51.70;;;;;;4800463;29;20029;-76
2022/07/27 01:37:09;;;;;;;1.63;0.70;;;18.60;51.80;;;;;;4799816;29;20542;-76
2022/07/27 01:39:35;;;;;;;1.85;0.70;;;18.60;51.90;;;;;;4819884;29;20121;-76
2022/07/27 01:42:02;;;;;;;1.60;0.77;;;18.60;51.90;;;;;;4815816;29;20083;-76
2022/07/27 01:44:28;;;;;;;2.00;0.80;;;18.50;51.80;;;;;;4815395;29;20529;-76
2022/07/27 01:46:54;;;;;;;2.95;1.30;;;18.50;51.90;;;;;;4817941;29;20299;-75
2022/07/27 01:49:20;;;;;;;1.73;0.80;;;18.40;51.80;;;;;;4800916;29;20504;-76
2022/07/27 01:51:46;;;;;;;3.25;0.90;;;18.40;51.90;;;;;;4816709;29;20030;-76
2022/07/27 01:54:12;;;;;;;2.08;0.68;;;18.30;51.80;;;;;;4800766;29;20133;-75
2022/07/27 01:56:37;;;;;;;2.10;1.05;;;18.40;52.10;;;;;;4815077;29;20038;-75
2022/07/27 01:59:03;;;;;;;1.30;1.05;;;18.30;52.00;;;;;;4818057;29;20575;-75
2022/07/27 02:01:29;;;;;;;1.05;0.50;;;18.20;51.80;;;;;;4814554;29;20171;-77
2022/07/27 02:03:55;;;;;;;1.58;0.77;;;18.20;51.90;;;;;;4814234;29;20541;-75
2022/07/27 02:06:21;;;;;;;0.93;0.50;;;18.20;52.00;;;;;;4815784;29;20034;-76
2022/07/27 02:08:47;;;;;;;0.60;0.40;;;18.10;51.90;;;;;;4816812;29;20472;-76
2022/07/27 02:13:57;;;;;;;3.20;0.70;;;18.00;51.90;;;;;;4817042;29;20050;-76
2022/07/27 02:16:23;;;;;;;1.67;0.88;;;18.00;51.90;;;;;;4815631;29;20525;-76
2022/07/27 02:18:50;;;;;;;2.00;0.85;;;18.00;51.90;;;;;;4800264;29;20113;-76
2022/07/27 02:21:16;;;;;;;2.20;0.50;;;18.00;52.00;;;;;;4818991;29;20119;-75
2022/07/27 02:23:43;;;;;;;1.00;0.68;;;18.00;52.00;;;;;;4816857;29;20465;-76
2022/07/27 02:26:09;;;;;;;3.13;0.95;;;17.90;51.90;;;;;;4815153;29;20034;-76
2022/07/27 02:28:35;;;;;;;3.42;1.30;;;17.90;52.00;;;;;;4815308;29;20281;-76
2022/07/27 02:31:01;;;;;;;0.75;0.60;;;17.90;52.00;;;;;;4816558;29;20662;-76
2022/07/27 02:33:28;;;;;;;2.10;0.80;;;17.80;51.90;;;;;;4814586;29;20046;-76
2022/07/27 02:35:54;;;;;;;1.52;0.70;;;17.80;51.90;;;;;;4815922;29;20388;-76
2022/07/27 02:38:20;;;;;;;2.70;0.77;;;17.80;52.00;;;;;;4816738;29;20053;-76
2022/07/27 02:40:46;;;;;;;2.10;0.88;;;17.80;52.10;;;;;;4817409;29;20382;-75
2022/07/27 02:43:12;;;;;;;1.38;0.70;;;17.70;51.90;;;;;;4815319;29;20030;-76
2022/07/27 02:45:38;;;;;;;2.08;0.70;;;17.70;52.00;;;;;;4818324;29;20041;-76
2022/07/27 02:48:05;;;;;;;3.97;0.85;;;17.70;52.00;;;;;;4818035;29;20230;-76
2022/07/27 02:50:30;;;;;;;1.70;1.17;;;17.70;52.10;;;;;;4814219;29;20113;-76
2022/07/27 02:52:57;;;;;;;1.95;0.50;;;17.60;51.90;;;;;;4817619;29;20117;-76
2022/07/27 02:55:23;;;;;;;6.32;1.60;;;17.60;52.00;;;;;;4803580;29;20030;-76
2022/07/27 02:57:49;;;;;;;1.73;0.60;;;17.60;52.10;;;;;;4814796;29;20026;-76
2022/07/27 03:00:15;;;;;;;1.02;0.65;;;17.60;52.70;;;;;;4815474;29;20058;-76
2022/07/27 03:02:41;;;;;;;1.23;0.57;;;17.50;52.00;;;;;;4812889;29;20117;-75
2022/07/27 03:05:09;;;;;;;2.75;0.70;;;17.50;52.30;;;;;;4814196;29;20049;-75
2022/07/27 03:07:35;;;;;;;1.75;0.70;;;17.50;52.20;;;;;;4814676;29;20098;-76
2022/07/27 03:10:01;;;;;;;2.22;0.68;;;17.50;52.10;;;;;;4816263;29;20516;-76
2022/07/27 03:12:27;;;;;;;1.17;0.63;;;17.40;52.00;;;;;;4816959;29;20539;-75
2022/07/27 03:14:53;;;;;;;1.77;1.10;;;17.40;52.10;;;;;;4806660;29;20034;-76
2022/07/27 03:17:19;;;;;;;1.88;0.70;;;17.40;52.20;;;;;;4823297;29;20405;-75
2022/07/27 03:19:45;;;;;;;0.85;0.40;;;17.40;52.20;;;;;;4832294;29;20107;-75
2022/07/27 03:22:10;;;;;;;1.45;0.80;;;17.40;52.30;;;;;;4827261;29;20034;-75
2022/07/27 03:24:37;;;;;;;3.10;0.85;;;17.30;52.10;;;;;;4832188;29;20045;-76
2022/07/27 03:27:02;;;;;;;3.47;1.33;;;17.30;52.20;;;;;;4825240;29;20202;-75
2022/07/27 03:29:28;;;;;;;3.03;1.30;;;17.30;52.20;;;;;;4815224;29;20105;-76
2022/07/27 03:31:54;;;;;;;2.45;0.73;;;17.30;52.30;;;;;;4813206;29;20035;-76
2022/07/27 03:34:20;;;;;;;1.67;0.70;;;17.30;52.30;;;;;;4816999;29;20548;-75
2022/07/27 03:36:46;;;;;;;1.95;0.60;;;17.30;52.30;;;;;;4815682;29;20141;-76
2022/07/27 03:39:12;;;;;;;3.53;1.42;;;17.30;52.40;;;;;;4816453;29;20064;-75
2022/07/27 03:41:38;;;;;;;1.70;0.60;;;17.30;52.40;;;;;;4815333;29;20698;-75
2022/07/27 03:44:05;;;;;;;0.70;0.60;;;17.30;52.40;;;;;;4816880;29;20106;-75
2022/07/27 03:46:31;;;;;;;2.33;0.82;;;17.30;52.50;;;;;;4814817;29;20042;-76
2022/07/27 03:48:57;;;;;;;2.28;1.42;;;17.30;52.50;;;;;;4815548;29;20275;-76
2022/07/27 03:51:23;;;;;;;3.30;1.67;;;17.30;52.50;;;;;;4813891;29;20022;-76
2022/07/27 03:53:49;;;;;;;1.50;0.70;;;17.30;52.60;;;;;;4813173;29;20046;-76
2022/07/27 03:56:15;;;;;;;2.47;0.60;;;17.30;52.60;;;;;;4798690;29;20602;-75
2022/07/27 03:58:41;;;;;;;2.22;1.10;;;17.30;52.70;;;;;;4815453;29;20054;-76
2022/07/27 04:01:07;;;;;;;1.88;0.88;;;17.20;52.40;;;;;;4810600;29;20404;-76
2022/07/27 04:03:33;;;;;;;2.03;0.68;;;17.20;52.50;;;;;;4813538;29;20515;-76
2022/07/27 04:05:59;;;;;;;2.92;0.85;;;17.20;52.50;;;;;;4815409;29;20034;-76
2022/07/27 04:08:25;;;;;;;2.45;0.77;;;17.20;52.50;;;;;;4800025;29;20513;-76
2022/07/27 04:10:51;;;;;;;1.02;0.60;;;17.20;52.60;;;;;;4813482;29;20031;-76
2022/07/27 04:13:20;;;;;;;0.95;0.60;;;17.20;52.60;;;;;;4813698;29;20068;-76
2022/07/27 04:15:49;;;;;;;1.15;0.50;;;17.10;52.50;;;;;;4813379;29;20493;-76
2022/07/27 04:18:16;;;;;;;1.85;0.60;;;17.10;52.50;;;;;;4801774;29;20125;-76
2022/07/27 04:20:42;;;;;;;1.83;0.80;;;17.10;52.60;;;;;;4816768;29;20746;-76
2022/07/27 04:23:08;;;;;;;1.02;0.57;;;17.10;52.60;;;;;;4817574;29;20039;-76
2022/07/27 04:25:33;;;;;;;1.20;0.90;;;17.10;52.60;;;;;;4819106;29;20070;-76
2022/07/27 04:27:59;;;;;;;4.15;0.93;;;17.10;52.70;;;;;;4801865;29;20536;-76
2022/07/27 04:30:25;;;;;;;1.83;0.70;;;17.10;52.70;;;;;;4820083;29;20042;-76
2022/07/27 04:32:52;;;;;;;1.55;0.60;;;17.10;52.80;;;;;;4803228;29;20116;-76
2022/07/27 04:35:18;;;;;;;0.60;0.50;;;17.10;52.80;;;;;;4818069;29;20030;-76
2022/07/27 04:37:44;;;;;;;0.80;0.50;;;17.10;52.90;;;;;;4817377;29;20066;-76
2022/07/27 04:40:10;;;;;;;1.50;0.73;;;17.00;52.70;;;;;;4817425;29;20047;-75
2022/07/27 04:42:37;;;;;;;1.98;0.68;;;17.00;52.80;;;;;;4819233;29;20453;-76
2022/07/27 04:45:03;;;;;;;2.08;1.60;;;17.00;52.80;;;;;;4817372;29;20042;-76
2022/07/27 04:47:29;;;;;;;1.33;0.52;;;17.00;52.80;;;;;;4815952;29;20034;-76
2022/07/27 04:49:55;;;;;;;1.58;0.82;;;17.10;53.00;;;;;;4784476;29;20086;-75
2022/07/27 04:52:21;;;;;;;2.92;0.98;;;17.00;52.80;;;;;;4801303;29;20495;-76
2022/07/27 04:54:53;;;;;;;2.17;0.90;;;17.00;52.80;;;;;;4816540;29;20275;-76
2022/07/27 04:57:21;;;;;;;3.45;1.00;;;17.10;53.00;;;;;;4817616;29;20260;-75
2022/07/27 04:59:47;;;;;;;3.33;0.73;;;17.10;53.00;;;;;;4804254;29;20106;-76
2022/07/27 05:02:13;;;;;;;1.75;0.70;;;17.10;53.00;;;;;;4818864;29;20395;-76
2022/07/27 05:04:39;;;;;;;3.25;1.20;;;17.10;53.00;;;;;;4804599;29;20039;-76
2022/07/27 05:07:05;;;;;;;0.77;0.57;;;17.10;53.00;;;;;;4819984;29;20125;-76
2022/07/27 05:09:31;;;;;;;2.20;0.70;;;17.10;53.00;;;;;;4820033;29;20107;-76
2022/07/27 05:11:57;;;;;;;1.48;0.60;;;17.20;53.10;;;;;;4813142;29;20061;-77
2022/07/27 05:14:22;;;;;;;2.50;0.80;;;17.20;53.00;;;;;;4817907;29;20121;-76
2022/07/27 05:16:49;;;;;;;4.90;1.17;;;17.20;53.00;;;;;;4797865;29;20435;-76
2022/07/27 05:19:15;;;;;;;2.58;1.20;;;17.20;53.00;;;;;;4798654;29;20106;-76
2022/07/27 05:21:41;;;;;;;3.40;1.05;;;17.20;53.00;;;;;;4814949;29;20125;-77
2022/07/27 05:24:08;;;;;;;1.75;0.50;;;17.20;53.00;;;;;;4815199;29;20062;-77
2022/07/27 05:26:35;;;;;;;1.85;0.77;;;17.20;53.00;;;;;;4814942;29;20034;-77
2022/07/27 05:29:01;;;;;;;3.40;1.02;;;17.30;53.10;;;;;;4816239;29;20041;-79
2022/07/27 05:31:27;;;;;;;5.00;1.23;;;17.30;53.10;;;;;;4818958;29;20381;-78
2022/07/27 05:33:53;;;;;;;2.75;1.20;;;17.30;53.00;;;;;;4815521;29;20139;-78
2022/07/27 05:36:19;;;;;;;4.07;1.50;;;17.30;52.70;;;;;;4814604;29;20034;-78
2022/07/27 05:38:44;;;;;;;3.95;1.23;;;17.30;52.60;;;;;;4816424;29;20066;-77
2022/07/27 05:41:10;;;;;;;2.38;1.15;;;17.30;52.50;;;;;;4817257;29;20517;-78
2022/07/27 05:43:36;;;;;;;5.35;1.50;;;17.20;52.30;;;;;;4815083;29;20030;-77
2022/07/27 05:46:02;;;;;;;4.40;1.70;;;17.20;52.20;;;;;;4815126;29;20424;-79
2022/07/27 05:48:28;;;;;;;3.22;1.10;;;17.20;52.20;;;;;;4814490;29;20045;-80
2022/07/27 05:50:54;;;;;;;3.35;1.23;;;17.20;52.20;;;;;;4815191;29;20026;-82
2022/07/27 05:53:20;;;;;;;2.92;1.38;;;17.20;52.20;;;;;;4814929;29;20038;-81
2022/07/27 05:55:46;;;;;;;6.25;1.63;;;17.20;52.10;;;;;;4815635;29;20159;-77
2022/07/27 05:58:12;;;;;;;5.07;2.25;;;17.30;52.30;;;;;;4818171;29;20045;-77
2022/07/27 06:00:37;;;;;;;3.10;1.73;;;17.40;52.30;;;;;;4815504;29;20038;-78
2022/07/27 06:03:03;;;;;;;1.55;1.00;;;17.40;52.20;;;;;;4815022;29;20026;-80
2022/07/27 06:05:29;;;;;;;3.00;1.50;;;17.50;52.20;;;;;;4816940;29;20038;-79
2022/07/27 06:07:58;;;;;;;6.20;1.80;;;17.60;52.30;;;;;;4812628;29;20114;-79
2022/07/27 06:10:29;;;;;;;2.33;1.60;;;17.70;52.20;;;;;;4819520;29;20034;-80
2022/07/27 06:12:55;;;;;;;6.45;2.55;;;17.80;52.20;;;;;;4815019;29;20022;-81
2022/07/27 06:15:22;;;;;;;3.72;1.63;;;17.90;52.10;;;;;;4818076;29;20070;-81
2022/07/27 06:17:51;;;;;;;3.22;2.03;;;18.00;52.00;;;;;;4814195;29;20283;-80
2022/07/27 06:20:18;;;;;;;4.53;1.85;;;18.10;51.80;;;;;;4817603;29;20046;-79
2022/07/27 06:22:49;;;;;;;4.00;1.65;;;18.30;51.80;;;;;;4814403;29;20042;-80
2022/07/27 06:25:16;;;;;;;2.00;1.38;;;18.50;51.70;;;;;;4798350;29;20094;-81
2022/07/27 06:27:43;;;;;;;4.10;1.50;;;18.60;51.50;;;;;;4796971;29;20030;-80
2022/07/27 06:30:09;;;;;;;7.10;1.88;;;18.90;51.60;;;;;;4815624;29;20030;-81
2022/07/27 06:32:35;;;;;;;7.30;2.30;;;19.10;52.00;;;;;;4798125;29;20090;-81
2022/07/27 06:35:02;;;;;;;2.45;1.38;;;19.40;51.20;;;;;;4816312;29;20030;-83
2022/07/27 06:37:30;;;;;;;4.30;2.13;;;19.70;51.00;;;;;;4810274;29;20050;-82
2022/07/27 06:39:57;;;;;;;3.83;1.73;;;20.10;50.90;;;;;;4798402;29;20197;-82
2022/07/27 06:42:23;;;;;;;4.00;1.73;;;20.40;50.80;;;;;;4780292;29;20127;-82
2022/07/27 06:44:50;;;;;;;2.20;1.27;;;20.70;50.70;;;;;;4794876;29;20054;-82
2022/07/27 06:47:16;;;;;;;4.50;1.90;;;21.10;50.80;;;;;;4796626;29;20039;-81
2022/07/27 06:49:42;;;;;;;5.43;2.28;;;21.30;50.40;;;;;;4796130;29;20030;-81
2022/07/27 06:52:08;;;;;;;2.22;1.42;;;21.70;50.30;;;;;;4801932;29;20039;-82
2022/07/27 06:54:34;;;;;;;4.00;1.45;;;22.00;50.20;;;;;;4796768;29;20026;-83
2022/07/27 06:57:00;;;;;;;3.60;1.55;;;22.20;50.00;;;;;;4797209;29;20611;-80
2022/07/27 06:59:25;;;;;;;5.00;2.17;;;22.40;50.10;;;;;;4800312;29;20035;-80
2022/07/27 07:01:51;;;;;;;4.03;1.50;;;22.60;50.00;;;;;;4794568;29;20035;-79
2022/07/27 07:04:17;;;;;;;3.00;1.60;;;22.90;50.00;;;;;;4796397;29;20027;-78
2022/07/27 07:06:43;;;;;;;3.88;1.83;;;23.10;49.80;;;;;;4796883;29;20045;-83
2022/07/27 07:09:10;;;;;;;5.47;1.80;;;23.20;49.60;;;;;;4797927;29;20027;-83
2022/07/27 07:11:36;;;;;;;5.93;2.10;;;23.30;49.60;;;;;;4798630;29;20209;-83
2022/07/27 07:14:02;;;;;;;4.05;1.92;;;23.30;49.40;;;;;;4797716;29;20039;-83
2022/07/27 07:16:28;;;;;;;6.25;2.17;;;23.50;49.40;;;;;;4800650;29;20026;-82
2022/07/27 07:18:54;;;;;;;6.47;2.47;;;23.70;49.20;;;;;;4798391;29;20670;-81
2022/07/27 07:21:20;;;;;;;5.28;2.83;;;24.00;49.90;;;;;;4796680;29;20460;-82
2022/07/27 07:23:46;;;;;;;5.03;1.98;;;24.20;49.10;;;;;;4797978;29;20223;-83
2022/07/27 07:26:12;;;;;;;4.20;2.22;;;24.40;49.30;;;;;;4801821;29;20038;-82
2022/07/27 07:28:38;;;;;;;4.95;2.25;;;24.40;48.90;;;;;;4802140;29;20133;-79
2022/07/27 07:31:04;;;;;;;5.40;1.80;;;24.20;48.70;;;;;;4800943;29;20039;-79
2022/07/27 07:33:30;;;;;;;5.00;2.30;;;23.90;48.40;;;;;;4801219;29;20541;-80
2022/07/27 07:35:55;;;;;;;4.47;2.22;;;23.60;48.30;;;;;;4810296;29;20042;-79
2022/07/27 07:38:21;;;;;;;4.20;1.77;;;23.40;48.40;;;;;;4813367;29;20138;-77
2022/07/27 07:40:47;;;;;;;3.85;2.28;;;23.30;48.70;;;;;;4814707;29;20491;-78
2022/07/27 07:43:13;;;;;;;4.40;2.22;;;23.30;48.90;;;;;;4813209;29;20500;-79
2022/07/27 07:45:41;;;;;;;5.30;2.38;;;23.30;48.90;;;;;;4815205;29;20563;-78
2022/07/27 07:48:07;;;;;;;5.32;2.70;;;23.30;48.90;;;;;;4813341;29;20510;-79
2022/07/27 07:50:33;;;;;;;4.25;2.28;;;23.30;49.00;;;;;;4813365;29;20117;-77
2022/07/27 07:52:59;;;;;;;5.25;2.50;;;23.30;49.00;;;;;;4770116;29;20124;-77
2022/07/27 07:55:26;;;;;;;6.05;2.60;;;23.40;49.10;;;;;;4817862;29;20057;-79
2022/07/27 07:57:53;;;;;;;6.10;3.08;;;23.50;49.10;;;;;;4799882;29;20152;-78
2022/07/27 08:00:20;;;;;;;12.15;3.30;;;23.60;49.20;;;;;;4784775;29;20119;-82
2022/07/27 08:02:49;;;;;;;7.18;2.90;;;23.70;49.10;;;;;;4814335;29;20060;-84
2022/07/27 08:05:16;;;;;;;5.85;3.50;;;23.90;49.40;;;;;;4815042;29;20025;-81
2022/07/27 08:07:43;;;;;;;8.15;2.85;;;23.90;49.30;;;;;;4816334;29;20479;-80
2022/07/27 08:10:10;;;;;;;8.68;3.97;;;23.90;49.30;;;;;;4816333;29;20067;-82
2022/07/27 08:12:38;;;;;;;8.32;4.07;;;24.00;49.40;;;;;;4814933;29;20038;-81
2022/07/27 08:15:06;;;;;;;8.20;4.32;;;24.00;49.40;;;;;;4799588;29;20031;-81
2022/07/27 08:17:32;;;;;;;6.72;3.53;;;24.00;49.50;;;;;;4815604;29;20042;-82
2022/07/27 08:19:58;;;;;;;8.18;3.83;;;24.10;49.60;;;;;;4818948;29;20034;-82
2022/07/27 08:22:24;;;;;;;6.05;3.15;;;24.20;49.60;;;;;;4819532;29;20125;-77
2022/07/27 08:24:50;;;;;;;9.80;4.05;;;24.30;49.60;;;;;;4821634;29;20121;-78
2022/07/27 08:27:16;;;;;;;8.00;3.88;;;24.40;49.80;;;;;;4822527;29;20094;-82
2022/07/27 08:29:42;;;;;;;7.82;3.67;;;24.40;49.70;;;;;;4837440;29;20133;-83
2022/07/27 08:32:08;;;;;;;7.28;3.75;;;24.30;49.60;;;;;;4837529;29;20043;-80
2022/07/27 08:34:34;;;;;;;7.05;3.15;;;24.20;49.60;;;;;;4839473;29;20102;-79
2022/07/27 08:36:59;;;;;;;8.25;3.97;;;24.20;49.70;;;;;;4834309;29;20536;-79
2022/07/27 08:39:25;;;;;;;7.32;3.60;;;24.10;49.60;;;;;;4817487;29;20068;-80
2022/07/27 08:41:53;;;;;;;9.27;3.88;;;24.00;49.50;;;;;;4816267;29;20463;-82
2022/07/27 08:44:23;;;;;;;6.05;3.25;;;24.00;49.60;;;;;;4815455;29;20389;-81
2022/07/27 08:46:49;;;;;;;9.75;3.92;;;23.90;49.40;;;;;;4814641;29;20038;-81
2022/07/27 08:49:15;;;;;;;5.25;3.63;;;24.00;49.70;;;;;;4816817;29;20034;-81
2022/07/27 08:51:42;;;;;;;10.27;4.28;;;24.00;49.60;;;;;;4815175;29;20034;-82
2022/07/27 08:54:09;;;;;;;7.72;3.70;;;24.00;49.40;;;;;;4814967;29;20031;-82
2022/07/27 08:56:36;;;;;;;8.85;4.20;;;24.10;49.40;;;;;;4817139;29;20485;-82
2022/07/27 08:59:03;;;;;;;8.70;4.30;;;24.20;49.40;;;;;;4818755;29;20034;-81
2022/07/27 09:01:35;;;;;;;10.40;4.22;;;24.20;49.30;;;;;;4815225;29;20038;-82
2022/07/27 09:04:01;;;;;;;6.45;3.83;;;24.20;49.20;;;;;;4818739;29;20344;-81
2022/07/27 09:06:40;;;;;;;10.10;4.65;;;24.30;49.40;;;;;;4816020;29;20033;-81
2022/07/27 09:09:06;;;;;;;7.75;4.30;;;24.30;49.40;;;;;;4815500;29;20035;-81
2022/07/27 09:11:35;;;;;;;6.65;3.47;;;24.40;49.60;;;;;;4813752;29;20042;-79
2022/07/27 09:14:03;;;;;;;7.55;3.95;;;24.50;49.60;;;;;;4813514;29;20034;-78
2022/07/27 09:16:30;;;;;;;9.10;4.20;;;24.60;49.60;;;;;;4814574;29;20034;-79
2022/07/27 09:19:15;;;;;;;6.15;3.80;;;24.60;49.40;;;;;;4817603;29;20034;-78
2022/07/27 09:21:41;;;;;;;8.43;3.80;;;24.70;49.30;;;;;;4814016;29;20492;-78
2022/07/27 09:24:10;;;;;;;9.10;4.82;;;24.70;49.40;;;;;;4816268;29;20397;-80
2022/07/27 09:26:36;;;;;;;11.52;5.35;;;24.80;49.50;;;;;;4815320;29;20030;-80
2022/07/27 09:29:20;;;;;;;6.78;3.67;;;24.90;49.70;;;;;;4817084;29;20042;-81
2022/07/27 09:31:50;;;;;;;9.20;4.70;;;25.00;49.80;;;;;;4815341;29;20554;-81
2022/07/27 09:34:34;;;;;;;8.88;4.65;;;25.10;49.70;;;;;;4814743;29;20038;-83
2022/07/27 09:37:02;;;;;;;8.88;3.42;;;25.20;49.60;;;;;;4814943;29;20047;-82
2022/07/27 09:39:28;;;;;;;8.90;4.40;;;25.30;49.50;;;;;;4815770;29;20034;-82
2022/07/27 09:42:00;;;;;;;10.73;4.28;;;25.40;49.30;;;;;;4814934;29;20097;-81
2022/07/27 09:44:40;;;;;;;6.35;4.47;;;25.60;49.30;;;;;;4819059;29;20409;-81
2022/07/27 09:47:26;;;;;;;7.72;4.57;;;25.60;49.10;;;;;;4813045;29;20042;-81
2022/07/27 09:50:17;;;;;;;8.85;3.05;;;25.70;48.90;;;;;;4814420;29;20042;-81
2022/07/27 09:52:44;;;;;;;8.85;3.20;;;25.80;49.30;;;;;;4810410;29;20097;-80
2022/07/27 09:55:10;;;;;;;4.55;2.42;;;25.90;48.70;;;;;;4816474;29;20046;-81
2022/07/27 09:57:56;;;;;;;5.22;2.80;;;26.00;48.60;;;;;;4814999;29;20037;-81
2022/07/27 10:00:23;;;;;;;6.28;2.65;;;26.10;48.50;;;;;;4815098;29;20484;-81
2022/07/27 10:02:50;;;;;;;4.60;2.53;;;26.10;48.50;;;;;;4813436;29;20215;-80
2022/07/27 10:05:20;;;;;;;4.97;2.53;;;26.20;48.40;;;;;;4819436;29;20380;-80
2022/07/27 10:07:46;;;;;;;7.68;2.63;;;26.20;48.20;;;;;;4812418;29;20042;-81
2022/07/27 10:10:13;;;;;;;3.13;2.03;;;26.30;48.00;;;;;;4814332;29;20045;-80
2022/07/27 10:12:42;;;;;;;3.47;2.17;;;26.30;47.60;;;;;;4810262;29;20409;-80
2022/07/27 10:15:10;;;;;;;7.63;2.53;;;26.30;47.30;;;;;;4813877;29;20041;-80
2022/07/27 10:17:38;;;;;;;6.30;2.58;;;26.40;47.30;;;;;;4813082;29;20689;-84
2022/07/27 10:20:08;;;;;;;5.43;2.70;;;26.40;47.30;;;;;;4816158;29;20058;-80
2022/07/27 10:22:52;;;;;;;5.40;2.13;;;26.40;47.20;;;;;;4812182;29;20026;-81
2022/07/27 10:25:18;;;;;;;4.75;2.10;;;26.50;47.30;;;;;;4813654;29;20046;-81
2022/07/27 10:28:07;;;;;;;7.72;2.63;;;26.50;47.10;;;;;;4812578;29;20039;-81
2022/07/27 10:30:34;;;;;;;4.22;2.47;;;26.60;46.60;;;;;;4816343;29;20131;-81
2022/07/27 10:33:34;;;;;;;3.40;2.38;;;26.70;46.70;;;;;;4816031;29;20480;-80
2022/07/27 10:36:01;;;;;;;3.08;1.55;;;26.70;46.50;;;;;;4792667;29;20118;-81
2022/07/27 10:38:45;;;;;;;3.95;1.83;;;26.80;46.50;;;;;;4813399;29;20046;-81
2022/07/27 10:41:27;;;;;;;4.75;1.77;;;26.80;45.80;;;;;;4815291;29;20536;-82
2022/07/27 10:44:21;;;;;;;2.08;1.50;;;26.80;45.80;;;;;;4811008;29;20057;-81
2022/07/27 10:46:51;;;;;;;4.60;1.88;;;26.80;45.90;;;;;;4813202;29;20087;-81
2022/07/27 10:49:43;;;;;;;4.35;2.05;;;26.80;45.90;;;;;;4814318;29;20624;-80
2022/07/27 10:52:40;;;;;;;2.78;1.50;;;26.80;45.60;;;;;;4793560;29;20038;-83
2022/07/27 10:55:07;;;;;;;5.30;1.88;;;26.90;45.50;;;;;;4812988;29;20397;-81
2022/07/27 10:57:35;;;;;;;3.17;1.60;;;26.90;45.60;;;;;;4813131;29;20035;-82
2022/07/27 11:00:08;;;;;;;6.43;2.40;;;26.90;45.50;;;;;;4813797;29;20481;-82
2022/07/27 11:02:40;;;;;;;3.25;1.67;;;27.00;45.40;;;;;;4811887;29;20409;-82
2022/07/27 11:05:07;;;;;;;6.25;2.28;;;27.00;45.10;;;;;;4813806;29;20031;-84
2022/07/27 11:07:33;;;;;;;3.55;2.00;;;27.00;45.00;;;;;;4812982;29;20780;-80
2022/07/27 11:10:00;;;;;;;5.55;2.20;;;27.10;44.80;;;;;;4817115;29;20341;-80
2022/07/27 11:12:29;;;;;;;6.60;1.50;;;27.10;44.60;;;;;;4813887;29;20546;-79
2022/07/27 11:14:56;;;;;;;5.63;1.67;;;27.20;44.90;;;;;;4814303;29;20046;-79
2022/07/27 11:17:25;;;;;;;5.18;2.00;;;27.20;44.30;;;;;;4811895;29;20037;-78
2022/07/27 11:19:59;;;;;;;6.72;1.88;;;27.20;44.20;;;;;;4816866;29;20037;-81
2022/07/27 11:22:39;;;;;;;4.45;1.77;;;27.30;44.20;;;;;;4812795;29;20129;-84
2022/07/27 11:25:06;;;;;;;4.68;1.70;;;27.50;43.90;;;;;;4796002;29;20045;-82
2022/07/27 11:27:44;;;;;;;5.88;1.80;;;27.70;43.80;;;;;;4811938;29;20441;-83
2022/07/27 11:30:25;;;;;;;2.47;1.15;;;27.80;43.50;;;;;;4814520;29;20053;-82
2022/07/27 11:32:52;;;;;;;4.20;1.75;;;28.00;43.10;;;;;;4812090;29;20090;-82
2022/07/27 11:35:18;;;;;;;2.45;1.33;;;28.10;43.10;;;;;;4810268;29;20141;-82
2022/07/27 11:38:16;;;;;;;3.35;1.90;;;28.20;42.70;;;;;;4816869;29;20064;-80
2022/07/27 11:40:47;;;;;;;3.70;1.65;;;28.30;42.30;;;;;;4781784;29;20077;-81
2022/07/27 11:43:40;;;;;;;2.40;1.50;;;28.50;42.50;;;;;;4814885;29;20073;-81
2022/07/27 11:46:27;;;;;;;2.70;1.33;;;28.50;42.00;;;;;;4811377;29;20027;-83
2022/07/27 11:48:55;;;;;;;3.40;1.85;;;28.70;41.90;;;;;;4795783;29;20452;-84
2022/07/27 11:51:22;;;;;;;5.20;1.50;;;28.80;42.00;;;;;;4812852;29;20507;-83
2022/07/27 11:54:02;;;;;;;3.35;1.13;;;28.90;41.80;;;;;;4813073;29;20048;-84
2022/07/27 11:56:32;;;;;;;3.88;1.50;;;28.90;41.50;;;;;;4814639;29;20621;-84
2022/07/27 11:59:28;;;;;;;2.05;1.08;;;28.90;41.40;;;;;;4813881;29;20049;-84
2022/07/27 12:01:58;;;;;;;2.53;1.48;;;28.90;41.40;;;;;;4785519;29;20409;-84
2022/07/27 12:04:27;;;;;;;5.60;1.90;;;29.00;41.40;;;;;;4801732;29;20074;-83
2022/07/27 12:07:04;;;;;;;7.53;1.33;;;29.10;41.20;;;;;;4806911;29;20086;-84
2022/07/27 12:09:34;;;;;;;2.55;1.50;;;29.20;40.90;;;;;;4816863;29;20087;-83
2022/07/27 12:12:14;;;;;;;2.78;1.42;;;29.40;40.90;;;;;;4802312;29;20038;-83
2022/07/27 12:14:57;;;;;;;4.30;2.05;;;29.40;40.30;;;;;;4817739;29;20065;-84
2022/07/27 12:17:29;;;;;;;6.50;1.73;;;29.40;40.10;;;;;;4815795;29;20167;-83
2022/07/27 12:19:57;;;;;;;2.35;1.15;;;29.30;40.20;;;;;;4817778;29;20141;-83
2022/07/27 12:22:27;;;;;;;3.85;1.40;;;29.20;40.20;;;;;;4813204;29;20540;-82
2022/07/27 12:24:54;;;;;;;1.88;1.13;;;29.20;40.20;;;;;;4812284;29;20030;-82
2022/07/27 12:27:20;;;;;;;1.83;1.35;;;29.30;40.20;;;;;;4812238;29;20027;-83
2022/07/27 12:30:05;;;;;;;2.42;0.90;;;29.40;40.10;;;;;;4815453;29;20042;-83
2022/07/27 12:32:34;;;;;;;1.67;0.90;;;29.40;39.40;;;;;;4809929;29;20039;-83
2022/07/27 12:35:13;;;;;;;3.33;0.70;;;29.60;39.70;;;;;;4810427;29;20046;-83
2022/07/27 12:37:41;;;;;;;2.22;0.80;;;29.70;39.50;;;;;;4783347;29;20165;-83
2022/07/27 12:40:16;;;;;;;1.15;0.70;;;30.10;39.20;;;;;;4798100;29;20035;-82
2022/07/27 12:42:42;;;;;;;3.03;1.25;;;30.30;38.60;;;;;;4812570;29;20114;-82
2022/07/27 12:45:19;;;;;;;2.70;1.13;;;30.50;38.50;;;;;;4798569;29;20127;-82
2022/07/27 12:47:45;;;;;;;2.13;1.00;;;30.50;38.00;;;;;;4796764;29;20041;-82
2022/07/27 12:50:26;;;;;;;1.95;1.02;;;30.50;38.10;;;;;;4799735;29;20126;-81
2022/07/27 12:52:52;;;;;;;3.38;1.30;;;30.50;37.80;;;;;;4797585;29;20041;-82
2022/07/27 12:55:20;;;;;;;2.38;0.98;;;30.30;37.90;;;;;;4798738;29;20490;-82